createdAt,value
2019-06-10T00:01:08.807Z,14.70
2019-06-10T00:03:42.169Z,14.70
2019-06-10T00:06:13.304Z,14.60
2019-06-10T00:08:44.564Z,14.60
2019-06-10T00:11:15.891Z,14.60
2019-06-10T00:13:47.050Z,14.60
2019-06-10T00:16:20.636Z,14.60
2019-06-10T00:18:51.479Z,14.50
2019-06-10T00:21:22.721Z,14.40
2019-06-10T00:23:54.016Z,14.40
2019-06-10T00:26:25.227Z,14.40
2019-06-10T00:28:56.494Z,14.30
2019-06-10T00:31:28.150Z,14.30
2019-06-10T00:34:03.087Z,14.30
2019-06-10T00:36:34.131Z,14.30
2019-06-10T00:39:13.144Z,14.30
2019-06-10T00:41:42.800Z,14.30
2019-06-10T00:44:14.350Z,14.30
2019-06-10T00:46:45.724Z,14.10
2019-06-10T00:49:17.191Z,14.00
2019-06-10T00:51:50.753Z,14.00
2019-06-10T00:54:22.260Z,14.10
2019-06-10T00:56:53.595Z,14.20
2019-06-10T00:59:24.801Z,14.20
2019-06-10T01:01:56.108Z,14.20
2019-06-10T01:04:27.773Z,14.20
2019-06-10T01:07:00.749Z,14.10
2019-06-10T01:09:32.234Z,14.10
2019-06-10T01:12:04.771Z,14.00
2019-06-10T01:14:36.227Z,14.00
2019-06-10T01:17:07.677Z,13.90
2019-06-10T01:19:41.401Z,13.80
2019-06-10T01:22:13.890Z,13.70
2019-06-10T01:24:45.208Z,13.70
2019-06-10T01:27:17.930Z,13.60
2019-06-10T01:29:51.106Z,13.50
2019-06-10T01:32:22.615Z,13.60
2019-06-10T01:34:53.888Z,13.60
2019-06-10T01:37:25.512Z,13.60
2019-06-10T01:39:57.175Z,13.60
2019-06-10T01:42:30.691Z,13.60
2019-06-10T01:45:01.822Z,13.60
2019-06-10T01:47:33.345Z,13.70
2019-06-10T01:50:06.932Z,13.80
2019-06-10T01:52:38.320Z,13.70
2019-06-10T01:55:12.344Z,13.70
2019-06-10T01:57:43.075Z,13.60
2019-06-10T02:00:23.304Z,13.60
2019-06-10T02:02:52.575Z,13.70
2019-06-10T02:05:23.913Z,13.80
2019-06-10T02:07:55.251Z,14.00
2019-06-10T02:10:26.937Z,14.10
2019-06-10T02:12:58.283Z,14.20
2019-06-10T02:15:31.522Z,14.30
2019-06-10T02:18:02.595Z,14.40
2019-06-10T02:20:34.832Z,14.60
2019-06-10T02:23:06.326Z,14.70
2019-06-10T02:25:37.695Z,14.60
2019-06-10T02:28:09.025Z,14.50
2019-06-10T02:30:50.103Z,14.50
2019-06-10T02:33:17.282Z,14.50
2019-06-10T02:35:49.129Z,14.40
2019-06-10T02:38:24.797Z,14.40
2019-06-10T02:40:53.872Z,14.40
2019-06-10T02:43:31.910Z,14.40
2019-06-10T02:46:03.917Z,14.40
2019-06-10T02:48:34.957Z,14.50
2019-06-10T02:51:08.602Z,14.60
2019-06-10T02:53:43.059Z,14.60
2019-06-10T02:56:14.679Z,14.70
2019-06-10T02:58:46.239Z,14.80
2019-06-10T03:01:21.110Z,14.80
2019-06-10T03:03:53.963Z,14.70
2019-06-10T03:06:31.863Z,14.70
2019-06-10T03:08:56.628Z,14.80
2019-06-10T03:11:32.409Z,14.90
2019-06-10T03:14:02.646Z,14.90
2019-06-10T03:16:42.181Z,14.90
2019-06-10T03:19:13.340Z,15.00
2019-06-10T03:21:45.080Z,15.00
2019-06-10T03:24:16.998Z,14.90
2019-06-10T03:26:48.323Z,15.00
2019-06-10T03:29:21.238Z,15.00
2019-06-10T03:31:55.263Z,14.90
2019-06-10T03:34:35.396Z,14.90
2019-06-10T03:36:58.762Z,14.90
2019-06-10T03:39:32.270Z,15.00
2019-06-10T03:42:04.090Z,15.00
2019-06-10T03:44:35.616Z,15.10
2019-06-10T03:47:06.930Z,15.00
2019-06-10T03:49:49.915Z,15.00
2019-06-10T03:52:12.954Z,15.00
2019-06-10T03:54:44.188Z,15.10
2019-06-10T03:57:15.579Z,15.10
2019-06-10T03:59:47.049Z,15.20
2019-06-10T04:02:19.316Z,15.20
2019-06-10T04:04:52.359Z,15.10
2019-06-10T04:07:28.311Z,15.10
2019-06-10T04:09:57.159Z,15.20
2019-06-10T04:12:29.180Z,15.20
2019-06-10T04:15:02.875Z,15.20
2019-06-10T04:17:33.535Z,15.30
2019-06-10T04:20:11.506Z,15.30
2019-06-10T04:22:39.077Z,15.30
2019-06-10T04:25:12.130Z,15.30
2019-06-10T04:27:43.531Z,15.30
2019-06-10T04:30:16.595Z,15.40
2019-06-10T04:32:47.821Z,15.40
2019-06-10T04:35:20.324Z,15.50
2019-06-10T04:37:52.146Z,15.60
2019-06-10T04:40:25.064Z,15.70
2019-06-10T04:42:56.624Z,15.80
2019-06-10T04:45:28.944Z,15.80
2019-06-10T04:48:02.890Z,15.90
2019-06-10T04:50:42.302Z,15.90
2019-06-10T04:53:06.131Z,15.80
2019-06-10T04:55:37.275Z,15.80
2019-06-10T04:58:08.699Z,15.80
2019-06-10T05:00:39.945Z,15.70
2019-06-10T05:03:12.118Z,15.70
2019-06-10T05:05:43.384Z,15.70
2019-06-10T05:08:15.456Z,15.70
2019-06-10T05:10:46.759Z,15.70
2019-06-10T05:13:19.362Z,15.70
2019-06-10T06:59:26.100Z,16.60
2019-06-10T07:02:02.741Z,16.90
2019-06-10T07:04:37.473Z,17.20
2019-06-10T07:07:13.207Z,17.40
2019-06-10T07:09:52.513Z,17.80
2019-06-10T07:12:26.546Z,18.10
2019-06-10T07:15:04.347Z,18.10
2019-06-10T07:17:39.525Z,18.40
2019-06-10T07:20:14.368Z,18.70
2019-06-10T07:22:47.668Z,18.80
2019-06-10T07:25:22.979Z,19.30
2019-06-10T07:27:56.247Z,20.10
2019-06-10T07:30:31.986Z,21.00
2019-06-10T07:33:04.700Z,20.60
2019-06-10T07:35:38.961Z,19.80
2019-06-10T07:38:12.362Z,19.30
2019-06-10T07:40:45.950Z,19.00
2019-06-10T07:43:19.361Z,18.60
2019-06-10T07:45:53.431Z,18.50
2019-06-10T07:48:26.822Z,19.00
2019-06-10T07:51:02.847Z,20.00
2019-06-10T07:53:36.994Z,21.20
2019-06-10T07:56:12.881Z,21.20
2019-06-10T07:58:47.645Z,21.70
2019-06-10T08:01:22.913Z,22.60
2019-06-10T08:03:56.003Z,22.20
2019-06-10T08:06:29.484Z,22.30
2019-06-10T08:09:03.249Z,23.10
2019-06-10T08:11:39.318Z,22.90
2019-06-10T08:14:13.134Z,23.10
2019-06-10T08:16:53.270Z,23.50
2019-06-10T08:19:34.993Z,25.00
2019-06-10T08:22:02.943Z,25.90
2019-06-10T08:24:37.316Z,26.30
2019-06-10T08:27:12.088Z,26.80
2019-06-10T08:29:48.054Z,27.40
2019-06-10T08:32:20.427Z,27.50
2019-06-10T08:34:54.851Z,25.90
2019-06-10T08:37:28.208Z,26.20
2019-06-10T08:40:03.666Z,26.80
2019-06-10T08:42:36.622Z,28.00
2019-06-10T08:45:12.534Z,29.00
2019-06-10T08:47:54.009Z,30.60
2019-06-10T08:50:25.908Z,31.00
2019-06-10T08:53:10.310Z,32.20
2019-06-10T08:55:35.882Z,32.00
2019-06-10T08:58:09.151Z,33.80
2019-06-10T09:00:45.107Z,35.10
2019-06-10T09:03:17.679Z,34.10
2019-06-10T09:05:54.487Z,35.50
2019-06-10T09:08:27.311Z,34.40
2019-06-10T09:11:02.428Z,33.80
2019-06-10T09:13:35.958Z,34.30
2019-06-10T09:16:15.584Z,34.90
2019-06-10T09:18:47.664Z,34.70
2019-06-10T09:21:19.191Z,35.20
2019-06-10T09:23:59.407Z,33.20
2019-06-10T09:26:27.900Z,33.10
2019-06-10T09:29:02.877Z,34.60
2019-06-10T09:31:37.723Z,35.80
2019-06-10T09:34:12.735Z,36.10
2019-06-10T09:36:50.110Z,34.60
2019-06-10T09:39:22.999Z,32.40
2019-06-10T09:42:02.373Z,34.00
2019-06-10T09:44:33.399Z,35.40
2019-06-10T09:47:06.747Z,34.10
2019-06-10T09:49:42.371Z,32.80
2019-06-10T09:52:16.013Z,31.80
2019-06-10T09:56:13.366Z,31.50
2019-06-10T09:58:49.208Z,31.20
2019-06-10T10:01:27.422Z,34.50
2019-06-10T10:04:00.754Z,35.80
2019-06-10T10:06:33.658Z,36.00
2019-06-10T10:09:07.680Z,35.20
2019-06-10T10:11:44.045Z,35.30
2019-06-10T10:14:16.040Z,34.80
2019-06-10T10:16:52.817Z,36.20
2019-06-10T10:19:23.741Z,35.20
2019-06-10T10:21:58.498Z,34.50
2019-06-10T10:24:34.056Z,32.90
2019-06-10T10:27:09.375Z,33.50
2019-06-10T10:29:43.667Z,34.10
2019-06-10T10:32:15.977Z,35.70
2019-06-10T10:34:50.261Z,36.40
2019-06-10T10:37:23.637Z,37.30
2019-06-10T10:39:56.773Z,37.50
2019-06-10T10:42:42.730Z,37.40
2019-06-10T10:45:06.173Z,36.20
2019-06-10T10:47:39.332Z,35.30
2019-06-10T10:50:14.101Z,34.60
2019-06-10T10:52:49.851Z,31.60
2019-06-10T10:55:23.634Z,31.90
2019-06-10T10:57:56.677Z,31.30
2019-06-10T11:00:45.383Z,30.40
2019-06-10T11:03:17.277Z,31.40
2019-06-10T11:05:57.226Z,31.80
2019-06-10T11:08:25.220Z,31.40
2019-06-10T11:11:01.764Z,32.40
2019-06-10T11:13:38.069Z,32.60
2019-06-10T11:16:11.179Z,31.90
2019-06-10T11:18:45.365Z,30.50
2019-06-10T11:21:18.484Z,31.00
2019-06-10T11:23:54.224Z,30.30
2019-06-10T11:26:27.017Z,29.00
2019-06-10T11:29:02.964Z,28.90
2019-06-10T11:31:35.326Z,28.80
2019-06-10T11:34:08.299Z,30.00
2019-06-10T11:36:42.508Z,31.20
2019-06-10T11:39:15.876Z,32.00
2019-06-10T11:41:50.884Z,32.90
2019-06-10T11:44:23.789Z,32.30
2019-06-10T11:46:59.208Z,32.60
2019-06-10T11:49:31.267Z,33.30
2019-06-10T11:52:04.585Z,33.40
2019-06-10T11:54:51.701Z,34.80
2019-06-10T11:57:13.256Z,33.30
2019-06-10T11:59:46.132Z,34.00
2019-06-10T12:02:19.318Z,34.10
2019-06-10T12:04:53.648Z,34.50
2019-06-10T12:07:26.970Z,34.80
2019-06-10T12:10:01.267Z,34.80
2019-06-10T12:12:34.329Z,34.30
2019-06-10T12:15:09.064Z,33.90
2019-06-10T12:17:50.577Z,33.80
2019-06-10T12:20:18.527Z,33.40
2019-06-10T12:22:55.225Z,33.30
2019-06-10T12:25:35.668Z,33.00
2019-06-10T12:28:06.498Z,31.20
2019-06-10T12:30:35.198Z,31.00
2019-06-10T12:33:07.958Z,30.80
2019-06-10T12:35:42.281Z,30.70
2019-06-10T12:38:15.524Z,30.00
2019-06-10T12:40:48.677Z,29.70
2019-06-10T12:43:23.150Z,30.30
2019-06-10T12:45:57.583Z,30.20
2019-06-10T12:48:33.202Z,30.60
2019-06-10T12:51:08.990Z,31.00
2019-06-10T12:53:44.998Z,31.60
2019-06-10T12:56:18.135Z,32.00
2019-06-10T12:58:54.024Z,32.60
2019-06-10T13:01:25.613Z,32.50
2019-06-10T13:03:59.491Z,31.60
2019-06-10T13:06:33.576Z,31.00
2019-06-10T13:09:08.130Z,31.10
2019-06-10T13:11:43.385Z,31.10
2019-06-10T13:14:18.289Z,31.70
2019-06-10T13:16:52.480Z,32.30
2019-06-10T13:19:26.257Z,34.10
2019-06-10T13:21:59.269Z,35.50
2019-06-10T13:24:33.875Z,35.70
2019-06-10T13:27:09.597Z,35.70
2019-06-10T13:29:43.732Z,35.60
2019-06-10T13:32:17.933Z,36.20
2019-06-10T13:34:54.531Z,36.40
2019-06-10T13:37:27.484Z,35.90
2019-06-10T13:40:02.254Z,35.40
2019-06-10T13:42:36.881Z,34.50
2019-06-10T13:45:10.969Z,33.70
2019-06-10T13:47:43.970Z,33.30
2019-06-10T13:50:19.281Z,32.50
2019-06-10T13:52:52.212Z,31.90
2019-06-10T13:55:25.206Z,32.00
2019-06-10T13:57:59.524Z,32.10
2019-06-10T14:00:42.709Z,32.40
2019-06-10T14:03:10.277Z,32.40
2019-06-10T14:05:44.738Z,32.20
2019-06-10T14:08:17.176Z,31.90
2019-06-10T14:10:50.358Z,32.00
2019-06-10T14:13:23.808Z,32.00
2019-06-10T14:15:57.930Z,31.70
2019-06-10T14:18:32.770Z,31.80
2019-06-10T14:21:09.019Z,31.50
2019-06-10T14:23:42.338Z,31.50
2019-06-10T14:26:17.158Z,31.30
2019-06-10T14:28:49.404Z,31.40
2019-06-10T14:31:39.594Z,31.20
2019-06-10T14:33:56.675Z,31.10
2019-06-10T14:36:29.454Z,31.00
2019-06-10T14:39:02.260Z,30.40
2019-06-10T14:41:36.954Z,30.20
2019-06-10T14:44:11.491Z,29.80
2019-06-10T14:46:44.404Z,29.60
2019-06-10T14:49:17.465Z,29.60
2019-06-10T14:51:50.270Z,29.60
2019-06-10T14:54:28.900Z,29.80
2019-06-10T14:57:02.689Z,30.00
2019-06-10T14:59:35.881Z,30.00
2019-06-10T15:02:09.908Z,30.00
2019-06-10T15:04:43.283Z,29.90
2019-06-10T15:07:15.931Z,29.00
2019-06-10T15:09:48.742Z,29.10
2019-06-10T15:12:22.777Z,29.20
2019-06-10T15:14:55.875Z,29.30
2019-06-10T15:17:29.032Z,28.90
2019-06-10T15:20:03.731Z,28.80
2019-06-10T15:22:36.588Z,28.40
2019-06-10T15:25:11.560Z,28.10
2019-06-10T15:27:44.103Z,27.70
2019-06-10T15:30:25.900Z,27.50
2019-06-10T15:32:52.568Z,27.50
2019-06-10T15:35:26.186Z,27.30
2019-06-10T15:38:05.566Z,27.20
2019-06-10T15:40:38.609Z,27.00
2019-06-10T15:43:12.060Z,26.80
2019-06-10T15:45:44.749Z,26.60
2019-06-10T15:48:20.004Z,26.70
2019-06-10T15:50:53.531Z,26.60
2019-06-10T15:53:26.836Z,26.50
2019-06-10T15:56:14.456Z,26.30
2019-06-10T15:58:34.611Z,26.10
2019-06-10T16:01:07.407Z,25.90
2019-06-10T16:03:42.409Z,25.70
2019-06-10T16:06:16.113Z,25.50
2019-06-10T16:08:48.898Z,25.20
2019-06-10T16:11:25.482Z,25.10
2019-06-10T16:13:56.429Z,25.00
2019-06-10T16:16:29.221Z,24.80
2019-06-10T16:19:02.319Z,24.60
2019-06-10T16:21:35.108Z,24.50
2019-06-10T16:24:08.688Z,24.30
2019-06-10T16:26:41.461Z,24.20
2019-06-10T16:29:15.069Z,24.20
2019-06-10T16:31:48.194Z,23.60
2019-06-10T16:34:21.935Z,22.10
2019-06-10T16:36:55.433Z,21.20
2019-06-10T16:39:32.559Z,20.30
2019-06-10T16:42:05.849Z,19.70
2019-06-10T16:44:39.077Z,19.30
2019-06-10T16:47:12.635Z,19.10
2019-06-10T16:49:45.996Z,18.90
2019-06-10T16:52:19.545Z,18.70
2019-06-10T16:54:52.655Z,18.60
2019-06-10T16:57:27.251Z,18.70
2019-06-10T17:00:06.971Z,18.70
2019-06-10T17:02:38.768Z,18.80
2019-06-10T17:05:11.696Z,18.90
2019-06-10T17:07:44.511Z,19.10
2019-06-10T17:10:19.590Z,19.20
2019-06-10T17:13:07.705Z,19.20
2019-06-10T17:15:42.341Z,19.20
2019-06-10T17:18:15.288Z,19.00
2019-06-10T17:20:49.027Z,18.60
2019-06-10T17:23:26.624Z,18.60
2019-06-10T17:25:59.382Z,18.70
2019-06-10T17:28:36.324Z,18.80
2019-06-10T17:31:07.010Z,18.80
2019-06-10T17:33:42.459Z,18.90
2019-06-10T17:36:14.621Z,18.90
2019-06-10T17:38:47.294Z,18.90
2019-06-10T17:41:21.307Z,18.90
2019-06-10T17:43:54.493Z,18.90
2019-06-10T17:46:27.968Z,18.80
2019-06-10T17:49:02.645Z,18.80
2019-06-10T17:51:35.799Z,18.70
2019-06-10T17:54:09.539Z,18.80
2019-06-10T17:56:42.731Z,18.70
2019-06-10T17:59:15.624Z,18.60
2019-06-10T18:01:48.476Z,18.70
2019-06-10T18:04:22.589Z,18.60
2019-06-10T18:06:55.641Z,18.60
2019-06-10T18:09:30.286Z,18.60
2019-06-10T18:12:03.751Z,18.40
2019-06-10T18:14:36.646Z,18.20
2019-06-10T18:17:09.389Z,18.20
2019-06-10T18:19:43.558Z,18.10
2019-06-10T18:22:16.340Z,18.20
2019-06-10T18:24:49.005Z,18.20
2019-06-10T18:27:22.448Z,18.20
2019-06-10T18:29:55.272Z,18.30
2019-06-10T18:32:29.465Z,18.30
2019-06-10T18:35:03.034Z,18.20
2019-06-10T18:37:38.751Z,18.20
2019-06-10T18:40:14.476Z,18.20
2019-06-10T18:42:47.223Z,18.20
2019-06-10T18:45:22.353Z,18.10
2019-06-10T18:47:56.809Z,18.10
2019-06-10T18:50:32.900Z,18.00
2019-06-10T18:53:05.055Z,18.00
2019-06-10T18:55:44.007Z,18.00
2019-06-10T18:58:17.099Z,18.00
2019-06-10T19:01:00.647Z,17.90
2019-06-10T19:03:25.541Z,17.80
2019-06-10T19:05:58.856Z,17.80
2019-06-10T19:08:35.555Z,17.70
2019-06-10T19:11:07.123Z,17.70
2019-06-10T19:13:43.278Z,17.70
2019-06-10T19:16:23.441Z,17.60
2019-06-10T19:18:56.880Z,17.60
2019-06-10T19:21:30.035Z,17.50
2019-06-10T19:24:03.305Z,17.50
2019-06-10T19:26:37.390Z,17.40
2019-06-10T19:29:13.480Z,17.30
2019-06-10T19:31:46.176Z,17.20
2019-06-10T19:34:19.132Z,17.10
2019-06-10T19:36:52.233Z,17.10
2019-06-10T19:39:25.211Z,17.00
2019-06-10T19:41:58.194Z,17.00
2019-06-10T19:44:32.784Z,17.00
2019-06-10T19:47:05.810Z,17.00
2019-06-10T19:49:38.980Z,16.90
2019-06-10T19:52:12.095Z,16.90
2019-06-10T19:54:45.537Z,16.80
2019-06-10T19:57:18.526Z,16.90
2019-06-10T20:00:07.769Z,17.00
2019-06-10T20:02:26.041Z,16.90
2019-06-10T20:04:58.783Z,16.90
2019-06-10T20:07:35.845Z,16.90
2019-06-10T20:10:09.701Z,16.80
2019-06-10T20:12:44.806Z,16.80
2019-06-10T20:15:23.171Z,16.70
2019-06-10T20:17:56.049Z,16.70
2019-06-10T20:20:28.923Z,16.70
2019-06-10T20:23:03.195Z,16.60
2019-06-10T20:25:36.347Z,16.60
2019-06-10T20:28:10.478Z,16.60
2019-06-10T20:30:46.107Z,16.60
2019-06-10T20:33:33.862Z,16.50
2019-06-10T20:36:07.058Z,16.50
2019-06-10T20:38:40.089Z,16.50
2019-06-10T20:41:13.021Z,16.50
2019-06-10T20:43:47.253Z,16.40
2019-06-10T20:46:20.320Z,16.30
2019-06-10T20:48:54.501Z,16.30
2019-06-10T20:51:27.742Z,16.30
2019-06-10T20:54:02.510Z,16.20
2019-06-10T20:56:34.882Z,16.20
2019-06-10T20:59:07.693Z,16.10
2019-06-10T21:01:43.736Z,16.10
2019-06-10T21:04:15.250Z,16.10
2019-06-10T21:06:49.851Z,16.10
2019-06-10T21:09:24.053Z,16.00
2019-06-10T21:11:56.928Z,16.00
2019-06-10T21:14:29.806Z,16.00
2019-06-10T21:17:03.615Z,16.00
2019-06-10T21:19:36.329Z,16.00
2019-06-10T21:22:09.266Z,15.80
2019-06-10T21:24:42.493Z,15.80
2019-06-10T21:27:15.525Z,15.80
2019-06-10T21:29:49.052Z,15.70
2019-06-10T21:32:23.044Z,15.60
2019-06-10T21:34:56.021Z,15.60
2019-06-10T21:37:28.744Z,15.50
2019-06-10T21:40:03.227Z,15.40
2019-06-10T21:42:36.589Z,15.40
2019-06-10T21:45:09.525Z,15.40
2019-06-10T21:47:44.116Z,15.30
2019-06-10T21:50:17.367Z,15.30
2019-06-10T21:52:52.721Z,15.20
2019-06-10T21:55:25.022Z,15.20
2019-06-10T21:57:58.193Z,15.20
2019-06-10T22:00:52.899Z,15.10
2019-06-10T22:03:17.663Z,15.10
2019-06-10T22:05:51.767Z,15.00
2019-06-10T22:08:25.786Z,14.90
2019-06-10T22:10:58.638Z,14.90
2019-06-10T22:13:32.862Z,14.90
2019-06-10T22:16:06.217Z,14.80
2019-06-10T22:18:39.080Z,14.80
2019-06-10T22:21:14.632Z,14.90
2019-06-10T22:23:46.689Z,14.80
2019-06-10T22:26:22.473Z,14.70
2019-06-10T22:28:57.484Z,14.70
2019-06-10T22:31:29.456Z,14.60
2019-06-10T22:34:03.359Z,14.60
2019-06-10T22:36:36.200Z,14.70
2019-06-10T22:39:09.409Z,14.90
2019-06-10T22:41:46.945Z,15.10
2019-06-10T22:44:19.764Z,15.00
2019-06-10T22:46:54.041Z,14.90
2019-06-10T22:49:26.972Z,14.80
2019-06-10T22:52:00.370Z,14.70
2019-06-10T22:54:33.571Z,14.60
2019-06-10T22:57:06.314Z,14.60
2019-06-10T22:59:39.172Z,14.70
2019-06-10T23:02:13.159Z,14.80
2019-06-10T23:04:46.017Z,14.90
2019-06-10T23:07:19.827Z,15.00
2019-06-10T23:09:53.392Z,14.90
2019-06-10T23:12:28.137Z,14.90
2019-06-10T23:15:02.845Z,14.90
2019-06-10T23:17:37.111Z,14.80
2019-06-10T23:20:12.309Z,14.70
2019-06-10T23:22:44.445Z,14.70
2019-06-10T23:25:17.270Z,14.70
2019-06-10T23:27:50.151Z,14.60
2019-06-10T23:30:22.976Z,14.50
2019-06-10T23:32:56.494Z,14.50
2019-06-10T23:35:32.359Z,14.50
2019-06-10T23:38:05.366Z,14.50
2019-06-10T23:40:38.093Z,14.50
2019-06-10T23:43:12.972Z,14.60
2019-06-10T23:45:45.353Z,14.60
2019-06-10T23:48:18.150Z,14.60
2019-06-10T23:50:54.008Z,14.70
2019-06-10T23:53:25.743Z,14.80
2019-06-10T23:56:00.092Z,14.80
2019-06-10T23:58:33.256Z,14.80
